Time;durP1;ratioP1;P1;durP2;ratioP2;P2;SDS_P1;SDS_P2;PMS_P1;PMS_P2;Temp;Humidity;BMP_temperature;BMP_pressure;BME280_temperature;BME280_humidity;BME280_pressure;Samples;Min_cycle;Max_cycle;Signal;HPM_P1;HPM_P2
2022/06/22 00:00:01;;;;;;;5.20;3.63;;;26.30;96.70;;;;;;4941264;28;20425;-78
2022/06/22 00:02:43;;;;;;;4.97;3.10;;;26.20;96.70;;;;;;4940866;29;20059;-79
2022/06/22 00:05:16;;;;;;;5.90;3.75;;;26.20;96.70;;;;;;4941902;28;20497;-78
2022/06/22 00:07:50;;;;;;;5.57;3.50;;;26.20;96.70;;;;;;4964614;28;20110;-79
2022/06/22 00:10:22;;;;;;;5.18;3.40;;;26.20;96.70;;;;;;4961777;28;20055;-79
2022/06/22 00:12:53;;;;;;;5.80;3.40;;;26.20;96.70;;;;;;4941845;28;20047;-80
2022/06/22 00:15:43;;;;;;;4.22;2.95;;;26.20;96.70;;;;;;4939293;28;20154;-79
2022/06/22 00:18:27;;;;;;;4.68;3.42;;;26.10;96.70;;;;;;4939599;28;20101;-79
2022/06/22 00:21:00;;;;;;;6.15;3.50;;;26.10;96.70;;;;;;4946642;28;20065;-79
2022/06/22 00:23:36;;;;;;;6.50;3.78;;;26.10;96.70;;;;;;4945836;28;20051;-80
2022/06/22 00:26:15;;;;;;;;;;;25.90;96.70;;;;;;4944874;28;20047;-80
2022/06/22 00:28:55;;;;;;;3.78;3.00;;;25.90;96.70;;;;;;4961618;28;19925;-80
2022/06/22 00:31:32;;;;;;;6.57;3.13;;;25.90;96.70;;;;;;4960426;28;20046;-80
2022/06/22 00:34:13;;;;;;;4.82;3.25;;;25.90;96.70;;;;;;4943481;28;20065;-79
2022/06/22 00:36:46;;;;;;;4.65;3.55;;;25.90;96.70;;;;;;4962988;28;20047;-80
2022/06/22 00:39:22;;;;;;;5.53;3.30;;;25.80;96.70;;;;;;4946397;28;20101;-80
2022/06/22 00:41:55;;;;;;;5.43;3.72;;;25.80;96.70;;;;;;4962054;28;20049;-80
2022/06/22 00:44:25;;;;;;;6.35;3.17;;;25.90;96.70;;;;;;4969426;28;20113;-80
2022/06/22 00:47:00;;;;;;;5.50;3.30;;;25.80;96.70;;;;;;4965433;28;20046;-80
2022/06/22 00:49:31;;;;;;;7.00;3.58;;;25.60;96.70;;;;;;4950013;28;20053;-80
2022/06/22 00:52:02;;;;;;;3.55;3.13;;;25.60;96.70;;;;;;4953750;28;20038;-80
2022/06/22 00:54:33;;;;;;;3.60;3.22;;;25.70;96.70;;;;;;4937161;28;20642;-80
2022/06/22 00:57:07;;;;;;;5.70;3.50;;;25.60;96.70;;;;;;4961287;28;20069;-80
2022/06/22 00:59:39;;;;;;;4.60;3.40;;;25.60;96.70;;;;;;4946718;28;20093;-80
2022/06/22 01:02:17;;;;;;;4.10;3.45;;;25.60;96.70;;;;;;4959426;28;20562;-80
2022/06/22 01:04:53;;;;;;;6.70;3.83;;;25.60;96.70;;;;;;4961255;28;20046;-80
2022/06/22 01:07:29;;;;;;;5.57;3.60;;;25.60;96.70;;;;;;4942962;28;20054;-80
2022/06/22 01:10:04;;;;;;;4.32;3.20;;;25.60;96.70;;;;;;4958747;28;20054;-80
2022/06/22 01:12:40;;;;;;;5.72;3.53;;;25.50;96.70;;;;;;4942230;28;20047;-80
2022/06/22 01:15:17;;;;;;;5.03;3.30;;;25.50;96.70;;;;;;4958543;28;20057;-80
2022/06/22 01:17:52;;;;;;;4.90;3.50;;;25.50;96.70;;;;;;4949001;28;20051;-79
2022/06/22 01:20:30;;;;;;;3.88;2.95;;;25.50;96.70;;;;;;4959957;28;20542;-80
2022/06/22 01:23:43;;;;;;;4.90;3.13;;;25.40;96.70;;;;;;4942040;28;20179;-79
2022/06/22 01:26:27;;;;;;;6.00;3.50;;;25.40;96.70;;;;;;4941982;28;20051;-80
2022/06/22 01:29:00;;;;;;;5.07;3.17;;;25.40;96.70;;;;;;4938942;28;20445;-80
2022/06/22 01:31:29;;;;;;;8.63;3.67;;;25.40;96.70;;;;;;4958427;28;20046;-80
2022/06/22 01:33:57;;;;;;;5.50;3.78;;;25.40;96.70;;;;;;4954726;28;20140;-80
2022/06/22 01:36:29;;;;;;;4.55;3.33;;;25.30;96.70;;;;;;4956560;28;20129;-80
2022/06/22 01:38:57;;;;;;;6.43;3.92;;;25.20;96.70;;;;;;4948023;28;20054;-79
2022/06/22 01:41:37;;;;;;;6.05;3.20;;;25.30;96.70;;;;;;4960859;28;20173;-79
2022/06/22 01:44:13;;;;;;;5.50;3.63;;;25.30;96.70;;;;;;4942457;28;20058;-79
2022/06/22 01:47:13;;;;;;;6.97;3.50;;;25.40;96.70;;;;;;4944371;28;20043;-79
2022/06/22 01:49:46;;;;;;;4.63;3.40;;;25.20;96.70;;;;;;4948922;28;20062;-77
2022/06/22 01:52:22;;;;;;;6.20;3.58;;;25.10;96.70;;;;;;4960713;28;20125;-77
2022/06/22 01:54:55;;;;;;;5.93;3.60;;;25.00;96.70;;;;;;4946605;28;20046;-77
2022/06/22 01:57:30;;;;;;;5.65;3.60;;;25.00;96.70;;;;;;4965788;28;20066;-77
2022/06/22 02:00:05;;;;;;;7.00;3.75;;;25.00;96.70;;;;;;4959280;28;20051;-77
2022/06/22 02:02:43;;;;;;;5.95;3.55;;;25.00;96.70;;;;;;4942166;28;20134;-77
2022/06/22 02:05:19;;;;;;;4.85;3.40;;;24.90;96.70;;;;;;4939311;28;20114;-77
2022/06/22 02:07:54;;;;;;;5.57;3.70;;;25.00;96.70;;;;;;4941312;28;20129;-77
2022/06/22 02:10:30;;;;;;;8.48;4.10;;;25.10;96.70;;;;;;4954314;28;20142;-77
2022/06/22 02:13:07;;;;;;;5.97;3.70;;;25.00;96.70;;;;;;4945591;28;20047;-77
2022/06/22 02:15:59;;;;;;;5.57;3.72;;;24.90;96.70;;;;;;4959361;28;20043;-77
2022/06/22 02:18:31;;;;;;;5.68;3.70;;;25.00;96.70;;;;;;4954940;28;20054;-77
2022/06/22 02:21:02;;;;;;;5.05;3.13;;;25.00;96.70;;;;;;4942506;28;20053;-77
2022/06/22 02:23:34;;;;;;;5.50;3.40;;;24.90;96.70;;;;;;4958516;28;20531;-77
2022/06/22 02:26:15;;;;;;;5.45;3.45;;;25.00;96.70;;;;;;4967441;28;20129;-77
2022/06/22 02:28:44;;;;;;;6.13;3.78;;;24.90;96.70;;;;;;4921744;28;20047;-77
2022/06/22 02:31:14;;;;;;;5.57;3.97;;;24.80;96.70;;;;;;4919470;29;20053;-77
2022/06/22 02:33:46;;;;;;;5.38;3.65;;;24.70;96.70;;;;;;4918830;29;20150;-77
2022/06/22 02:36:14;;;;;;;5.82;3.50;;;24.80;96.70;;;;;;4921587;29;20050;-77
2022/06/22 02:38:44;;;;;;;5.93;3.70;;;24.90;96.70;;;;;;4919603;29;20151;-77
2022/06/22 02:46:47;;;;;;;6.55;4.00;;;24.90;96.70;;;;;;4922768;29;20050;-78
2022/06/22 02:49:23;;;;;;;5.90;3.55;;;24.90;96.70;;;;;;4923621;28;20044;-77
2022/06/22 02:51:52;;;;;;;4.10;3.28;;;24.80;96.70;;;;;;4933108;29;20054;-77
2022/06/22 02:54:28;;;;;;;5.97;4.10;;;24.70;96.70;;;;;;4937860;29;20453;-77
2022/06/22 02:57:18;;;;;;;5.95;3.80;;;24.70;96.70;;;;;;4927406;29;20047;-77
2022/06/22 02:59:48;;;;;;;4.68;3.60;;;24.60;96.70;;;;;;4919779;29;20052;-77
2022/06/22 03:02:20;;;;;;;5.47;3.40;;;24.70;96.70;;;;;;4918299;29;20055;-77
2022/06/22 03:04:50;;;;;;;5.22;3.70;;;24.60;96.70;;;;;;4921914;29;20110;-77
2022/06/22 03:07:20;;;;;;;6.03;4.22;;;24.50;96.70;;;;;;4933362;28;20596;-79
2022/06/22 03:09:50;;;;;;;5.10;3.50;;;24.70;96.70;;;;;;4936669;28;20059;-79
2022/06/22 03:12:18;;;;;;;6.00;3.78;;;24.70;96.70;;;;;;4920767;29;20051;-79
2022/06/22 03:14:52;;;;;;;4.10;3.70;;;24.70;96.70;;;;;;4928847;28;20172;-78
2022/06/22 03:17:24;;;;;;;4.07;3.72;;;24.60;96.70;;;;;;4922540;29;20050;-79
2022/06/22 03:19:57;;;;;;;5.47;3.97;;;24.60;96.70;;;;;;4923422;29;20077;-79
2022/06/22 03:22:29;;;;;;;5.18;3.67;;;24.50;96.70;;;;;;4921265;29;20054;-79
2022/06/22 03:25:04;;;;;;;6.25;4.15;;;24.30;96.70;;;;;;4929309;28;20052;-78
2022/06/22 03:27:36;;;;;;;4.00;3.60;;;24.40;96.70;;;;;;4943933;28;20457;-79
2022/06/22 03:30:06;;;;;;;4.45;3.38;;;24.50;96.70;;;;;;4957238;28;20138;-79
2022/06/22 03:32:47;;;;;;;5.28;3.53;;;24.50;96.70;;;;;;4958108;28;20063;-79
2022/06/22 03:35:20;;;;;;;6.78;3.80;;;24.40;96.70;;;;;;4946258;28;20130;-79
2022/06/22 03:37:55;;;;;;;5.68;4.05;;;24.40;96.70;;;;;;4946797;28;20039;-79
2022/06/22 03:40:30;;;;;;;6.23;4.03;;;24.40;96.70;;;;;;4946267;28;20043;-79
2022/06/22 03:43:06;;;;;;;6.47;3.75;;;24.30;96.70;;;;;;4943618;29;20772;-79
2022/06/22 03:45:38;;;;;;;6.45;3.97;;;24.30;96.70;;;;;;4942619;28;20047;-79
2022/06/22 03:48:12;;;;;;;6.65;4.40;;;24.30;96.70;;;;;;4943917;28;20846;-79
2022/06/22 03:50:45;;;;;;;4.63;3.90;;;24.30;96.70;;;;;;4957239;28;20055;-79
2022/06/22 03:53:21;;;;;;;5.65;4.00;;;24.30;96.70;;;;;;4947150;28;20192;-79
2022/06/22 03:55:54;;;;;;;5.07;3.80;;;24.30;96.70;;;;;;4947827;28;20500;-79
2022/06/22 03:58:24;;;;;;;6.72;4.15;;;24.30;96.70;;;;;;4950232;28;20069;-79
2022/06/22 04:00:53;;;;;;;6.32;3.70;;;24.30;96.70;;;;;;4944348;28;20043;-79
2022/06/22 04:03:23;;;;;;;5.00;3.85;;;24.30;96.70;;;;;;4960071;28;20055;-79
2022/06/22 04:05:55;;;;;;;6.07;4.03;;;24.20;96.70;;;;;;4942298;28;20051;-79
2022/06/22 04:08:28;;;;;;;5.75;3.65;;;24.10;96.70;;;;;;4948208;28;20216;-79
2022/06/22 04:11:01;;;;;;;8.38;4.18;;;24.00;96.70;;;;;;4969202;28;20603;-79
2022/06/22 04:13:34;;;;;;;6.32;3.88;;;24.10;96.70;;;;;;4965675;28;20410;-79
2022/06/22 04:16:07;;;;;;;6.50;3.53;;;24.10;96.70;;;;;;4965006;28;20079;-79
2022/06/22 04:18:40;;;;;;;6.80;3.75;;;24.30;96.70;;;;;;4951575;28;20055;-80
2022/06/22 04:21:12;;;;;;;4.47;4.03;;;24.20;96.70;;;;;;4965317;28;20430;-79
2022/06/22 04:23:43;;;;;;;7.28;3.90;;;24.10;96.70;;;;;;4962063;28;20051;-79
2022/06/22 04:26:17;;;;;;;4.68;3.50;;;24.10;96.70;;;;;;4955204;28;20075;-79
2022/06/22 04:28:49;;;;;;;5.28;3.58;;;24.20;96.70;;;;;;4970632;28;20054;-79
2022/06/22 04:31:22;;;;;;;6.43;3.60;;;24.20;96.70;;;;;;4971383;28;20054;-79
2022/06/22 04:33:58;;;;;;;7.40;3.42;;;24.10;96.70;;;;;;4971213;28;20050;-79
2022/06/22 04:36:31;;;;;;;;;;;24.20;96.70;;;;;;4966678;28;20082;-79
2022/06/22 04:39:07;;;;;;;6.60;3.88;;;24.30;96.70;;;;;;4966801;28;19937;-79
2022/06/22 04:41:38;;;;;;;7.47;3.75;;;24.30;96.70;;;;;;4972111;28;20129;-79
2022/06/22 04:44:13;;;;;;;5.22;3.78;;;24.30;96.70;;;;;;4971056;28;20047;-80
2022/06/22 04:46:43;;;;;;;5.20;3.70;;;24.30;96.70;;;;;;4961539;28;20133;-79
2022/06/22 04:49:19;;;;;;;7.65;4.25;;;24.20;96.70;;;;;;4971289;28;20039;-79
2022/06/22 04:51:52;;;;;;;5.50;4.03;;;24.30;96.70;;;;;;4973004;28;20043;-79
2022/06/22 04:54:25;;;;;;;4.95;4.30;;;24.30;96.70;;;;;;4952722;28;20149;-78
2022/06/22 04:56:55;;;;;;;8.70;4.47;;;24.20;96.70;;;;;;4967296;28;20049;-79
2022/06/22 04:59:24;;;;;;;6.68;4.10;;;24.30;96.70;;;;;;4974496;28;20045;-79
2022/06/22 05:01:56;;;;;;;8.98;4.35;;;24.30;96.70;;;;;;4952369;28;20258;-79
2022/06/22 05:04:29;;;;;;;6.03;4.53;;;24.20;96.70;;;;;;4970092;28;20096;-79
2022/06/22 05:07:03;;;;;;;6.22;4.15;;;24.20;96.70;;;;;;4964236;28;20051;-79
2022/06/22 05:09:38;;;;;;;5.68;4.35;;;24.20;96.70;;;;;;4967964;28;20050;-79
2022/06/22 05:12:12;;;;;;;8.10;4.18;;;24.40;96.70;;;;;;4956390;28;20057;-79
2022/06/22 05:14:42;;;;;;;6.57;4.53;;;24.40;96.70;;;;;;4954319;28;20058;-79
2022/06/22 05:17:19;;;;;;;10.93;4.90;;;24.50;96.70;;;;;;4952350;28;20047;-79
2022/06/22 05:19:54;;;;;;;5.40;4.55;;;24.50;96.70;;;;;;4971409;28;20058;-79
2022/06/22 05:22:23;;;;;;;8.32;4.50;;;24.60;96.70;;;;;;4971151;28;20043;-80
2022/06/22 05:24:55;;;;;;;6.95;4.10;;;24.60;96.70;;;;;;4949526;28;20126;-79
2022/06/22 05:27:27;;;;;;;8.77;4.18;;;24.70;96.70;;;;;;4967145;28;20424;-80
2022/06/22 05:29:59;;;;;;;8.18;4.20;;;24.60;96.70;;;;;;4967744;28;20058;-79
2022/06/22 05:32:31;;;;;;;9.02;4.20;;;24.60;96.70;;;;;;4971818;28;20069;-80
2022/06/22 05:35:06;;;;;;;5.50;3.90;;;24.60;96.70;;;;;;4968428;28;20046;-78
2022/06/22 05:37:40;;;;;;;6.07;4.30;;;24.70;96.70;;;;;;4967759;28;20129;-78
2022/06/22 05:40:19;;;;;;;6.68;4.15;;;24.80;96.70;;;;;;4948430;28;20055;-78
2022/06/22 05:42:47;;;;;;;5.38;3.80;;;24.80;96.70;;;;;;4968929;28;20049;-79
2022/06/22 05:45:17;;;;;;;7.03;4.32;;;24.90;96.70;;;;;;4969773;28;20049;-78
2022/06/22 05:47:46;;;;;;;7.10;4.30;;;24.90;96.70;;;;;;4974353;28;20122;-78
2022/06/22 05:50:32;;;;;;;6.90;4.30;;;25.00;96.70;;;;;;4949886;28;20102;-78
2022/06/22 05:53:09;;;;;;;5.07;3.75;;;25.00;96.70;;;;;;4972285;28;20121;-79
2022/06/22 05:55:44;;;;;;;5.88;4.07;;;25.20;96.70;;;;;;4952652;28;20046;-79
2022/06/22 05:58:28;;;;;;;7.28;4.22;;;25.40;96.70;;;;;;4965748;28;20420;-77
2022/06/22 06:00:58;;;;;;;6.18;4.00;;;25.40;96.70;;;;;;4970387;28;20050;-79
2022/06/22 06:03:34;;;;;;;8.50;4.50;;;25.30;96.70;;;;;;4946040;28;20054;-80
2022/06/22 06:06:10;;;;;;;8.90;4.70;;;25.30;96.70;;;;;;4967548;28;20055;-81
2022/06/22 06:08:43;;;;;;;7.80;4.60;;;25.20;96.70;;;;;;4947791;28;20051;-79
2022/06/22 06:11:15;;;;;;;8.13;4.30;;;25.20;96.70;;;;;;4961183;28;20051;-82
2022/06/22 06:13:48;;;;;;;6.40;3.55;;;25.20;96.70;;;;;;4962794;28;20054;-85
2022/06/22 06:16:24;;;;;;;9.43;5.53;;;25.30;96.70;;;;;;4966320;28;20499;-80
2022/06/22 06:18:56;;;;;;;13.88;7.40;;;25.40;96.70;;;;;;4969699;28;20459;-81
2022/06/22 06:21:32;;;;;;;16.67;10.50;;;25.30;96.70;;;;;;4948819;28;20061;-80
2022/06/22 06:24:05;;;;;;;12.82;9.60;;;25.50;96.70;;;;;;4961888;28;20076;-79
2022/06/22 06:29:32;;;;;;;11.02;6.47;;;25.40;96.70;;;;;;4965844;28;20066;-79
2022/06/22 06:32:19;;;;;;;10.40;5.55;;;25.40;96.70;;;;;;4964104;28;20138;-79
2022/06/22 06:34:51;;;;;;;;;;;25.50;96.70;;;;;;4964043;28;20571;-78
2022/06/22 06:37:29;;;;;;;9.43;5.20;;;25.60;96.70;;;;;;4969996;28;19926;-79
2022/06/22 06:39:59;;;;;;;11.35;5.40;;;25.60;96.70;;;;;;4966499;28;20047;-79
2022/06/22 06:42:35;;;;;;;8.63;5.13;;;25.70;96.70;;;;;;4961993;28;20038;-78
2022/06/22 06:45:13;;;;;;;7.05;4.50;;;25.80;96.70;;;;;;4928435;29;20552;-79
2022/06/22 06:47:45;;;;;;;21.85;7.05;;;25.90;96.70;;;;;;4968136;28;20047;-79
2022/06/22 06:50:18;;;;;;;8.77;3.97;;;26.10;96.70;;;;;;4975700;28;20057;-79
2022/06/22 06:52:54;;;;;;;19.70;5.97;;;26.20;96.70;;;;;;4954874;28;20125;-79
2022/06/22 06:55:30;;;;;;;9.38;5.88;;;26.30;96.70;;;;;;4954917;28;20400;-80
2022/06/22 06:58:06;;;;;;;7.35;4.28;;;26.40;96.70;;;;;;4966212;28;20513;-79
2022/06/22 07:00:34;;;;;;;7.20;3.47;;;26.30;96.70;;;;;;4965617;28;20261;-78
2022/06/22 07:03:07;;;;;;;13.00;5.15;;;26.30;96.70;;;;;;4968305;28;20528;-78
2022/06/22 07:05:35;;;;;;;6.45;4.15;;;26.30;96.70;;;;;;4969016;28;20590;-78
2022/06/22 07:08:17;;;;;;;13.13;4.53;;;26.30;96.70;;;;;;4966897;28;20043;-78
2022/06/22 07:11:12;;;;;;;7.68;4.22;;;26.50;96.70;;;;;;4964447;28;20389;-78
2022/06/22 07:13:46;;;;;;;9.35;4.97;;;26.50;96.70;;;;;;4968323;28;20137;-78
2022/06/22 07:16:19;;;;;;;8.40;4.18;;;26.50;96.70;;;;;;4953506;28;20055;-78
2022/06/22 07:18:53;;;;;;;11.23;4.13;;;26.60;96.70;;;;;;4972443;28;20043;-77
2022/06/22 07:21:29;;;;;;;8.93;4.57;;;26.70;96.70;;;;;;4953170;28;20082;-77
2022/06/22 07:24:03;;;;;;;9.32;4.38;;;26.70;96.70;;;;;;4970388;28;20038;-78
2022/06/22 07:26:41;;;;;;;7.90;4.30;;;26.80;96.70;;;;;;4968581;28;20083;-79
2022/06/22 07:29:24;;;;;;;7.85;4.25;;;26.90;96.70;;;;;;4954217;28;20154;-79
2022/06/22 07:31:58;;;;;;;6.53;3.35;;;27.00;96.70;;;;;;4963726;28;20059;-78
2022/06/22 07:34:33;;;;;;;6.28;3.90;;;27.10;96.70;;;;;;4968293;28;20580;-79
2022/06/22 07:37:09;;;;;;;6.00;3.47;;;27.20;96.70;;;;;;4950244;28;20061;-79
2022/06/22 07:39:40;;;;;;;;;;;27.30;96.70;;;;;;4944092;28;20509;-79
2022/06/22 07:42:12;;;;;;;5.93;3.28;;;27.50;96.70;;;;;;4950024;28;19933;-78
2022/06/22 07:44:41;;;;;;;4.43;3.53;;;27.50;96.70;;;;;;4950152;28;20040;-79
2022/06/22 07:47:24;;;;;;;6.13;3.55;;;27.50;96.70;;;;;;4947744;29;20055;-78
2022/06/22 07:49:57;;;;;;;6.38;3.20;;;27.50;96.70;;;;;;4961040;28;20774;-78
2022/06/22 07:52:31;;;;;;;5.75;3.25;;;27.50;96.70;;;;;;4956025;28;20051;-78
2022/06/22 07:55:05;;;;;;;6.25;3.10;;;27.60;96.70;;;;;;4949999;28;20055;-78
2022/06/22 07:57:41;;;;;;;6.28;2.78;;;27.50;96.70;;;;;;4954388;28;20057;-79
2022/06/22 08:00:14;;;;;;;4.60;3.10;;;27.60;96.70;;;;;;4947986;28;20051;-78
2022/06/22 08:02:51;;;;;;;4.18;3.17;;;27.70;96.70;;;;;;4953753;28;20051;-79
2022/06/22 08:05:23;;;;;;;4.80;2.72;;;27.90;96.70;;;;;;4968526;28;20093;-79
2022/06/22 08:07:54;;;;;;;5.32;2.90;;;28.00;96.70;;;;;;4956894;28;20047;-79
2022/06/22 08:10:31;;;;;;;5.55;3.10;;;28.10;96.70;;;;;;4966279;28;20051;-79
2022/06/22 08:13:02;;;;;;;;;;;28.20;96.70;;;;;;4954304;28;20126;-79
2022/06/22 08:15:35;;;;;;;3.83;2.88;;;28.10;96.70;;;;;;4947280;28;19957;-79
2022/06/22 08:18:04;;;;;;;3.67;2.70;;;28.10;96.70;;;;;;4962489;28;20493;-79
2022/06/22 08:20:36;;;;;;;5.55;2.67;;;28.20;96.70;;;;;;4953733;28;20039;-79
2022/06/22 08:23:08;;;;;;;5.55;3.00;;;28.40;96.70;;;;;;4969490;28;20051;-79
2022/06/22 08:25:59;;;;;;;7.75;2.83;;;28.50;96.70;;;;;;4955260;28;20535;-79
2022/06/22 08:28:41;;;;;;;3.17;2.80;;;28.60;96.70;;;;;;4912756;29;20404;-79
2022/06/22 08:31:09;;;;;;;6.35;2.95;;;28.60;96.70;;;;;;4913825;29;20056;-79
2022/06/22 08:33:40;;;;;;;6.55;3.05;;;28.50;96.70;;;;;;4907773;29;20142;-79
2022/06/22 08:36:20;;;;;;;4.70;2.70;;;28.60;96.70;;;;;;4892042;29;20056;-79
2022/06/22 08:38:55;;;;;;;6.93;3.08;;;28.60;96.70;;;;;;4905442;29;20280;-78
2022/06/22 08:41:39;;;;;;;4.78;2.90;;;28.60;96.70;;;;;;4891484;29;20562;-79
2022/06/22 08:44:20;;;;;;;4.20;2.92;;;28.80;96.70;;;;;;4907219;29;20091;-79
2022/06/22 08:47:06;;;;;;;5.80;2.60;;;28.90;96.70;;;;;;4915515;29;20063;-79
2022/06/22 08:49:53;;;;;;;5.13;2.92;;;28.90;96.70;;;;;;4907388;29;20215;-79
2022/06/22 08:52:46;;;;;;;5.05;2.80;;;29.00;96.70;;;;;;4906414;29;20047;-78
2022/06/22 08:55:57;;;;;;;4.32;2.58;;;29.10;96.70;;;;;;4906602;29;20066;-78
2022/06/22 08:58:50;;;;;;;6.55;3.03;;;29.10;96.70;;;;;;4906335;29;20112;-79
2022/06/22 09:01:27;;;;;;;4.88;2.72;;;29.20;96.70;;;;;;4968042;28;20055;-79
2022/06/22 09:04:26;;;;;;;4.40;2.80;;;29.30;96.70;;;;;;4953875;28;20047;-78
2022/06/22 09:07:46;;;;;;;5.00;2.70;;;29.40;96.70;;;;;;4943940;28;20051;-79
2022/06/22 09:10:46;;;;;;;4.38;2.45;;;29.40;96.70;;;;;;4888350;29;20070;-79
2022/06/22 09:13:27;;;;;;;5.93;2.55;;;29.50;96.70;;;;;;4949126;28;20062;-80
2022/06/22 09:16:14;;;;;;;5.22;2.90;;;29.50;96.70;;;;;;4941941;29;20054;-80
2022/06/22 09:19:08;;;;;;;4.88;2.95;;;29.60;96.70;;;;;;4944076;28;20051;-80
2022/06/22 09:21:52;;;;;;;4.07;2.63;;;29.70;96.70;;;;;;4965693;28;20055;-80
2022/06/22 09:24:22;;;;;;;5.68;2.85;;;29.60;96.70;;;;;;4969125;28;20062;-80
2022/06/22 09:27:01;;;;;;;4.43;2.47;;;29.70;96.70;;;;;;4956673;28;20560;-80
2022/06/22 09:29:40;;;;;;;9.85;2.80;;;29.90;96.70;;;;;;4951759;28;20058;-79
2022/06/22 09:32:39;;;;;;;5.07;2.60;;;29.90;96.70;;;;;;4964532;28;20170;-79
2022/06/22 09:35:45;;;;;;;8.13;2.75;;;29.90;96.70;;;;;;4940468;28;20058;-79
2022/06/22 09:38:33;;;;;;;6.60;2.70;;;29.90;96.70;;;;;;4964880;28;20039;-79
2022/06/22 09:41:11;;;;;;;4.35;2.83;;;30.00;96.70;;;;;;4954174;28;20050;-79
2022/06/22 09:44:22;;;;;;;3.90;2.63;;;30.20;96.70;;;;;;4967984;28;20050;-79
2022/06/22 09:47:29;;;;;;;6.15;2.67;;;30.30;96.70;;;;;;4898157;28;20048;-79
2022/06/22 09:50:23;;;;;;;4.32;2.28;;;30.30;96.70;;;;;;4886232;29;20131;-79
2022/06/22 09:53:18;;;;;;;4.05;2.28;;;30.10;96.70;;;;;;4969083;28;20580;-79
2022/06/22 09:59:18;;;;;;;4.28;2.50;;;30.40;96.70;;;;;;4924963;28;20627;-78
2022/06/22 10:01:54;;;;;;;5.40;2.30;;;30.50;96.70;;;;;;4905235;29;20060;-79
2022/06/22 10:05:04;;;;;;;5.82;2.60;;;30.50;96.70;;;;;;4912864;29;20428;-79
2022/06/22 10:07:44;;;;;;;5.22;2.47;;;30.70;96.70;;;;;;4914205;29;20058;-79
2022/06/22 10:10:24;;;;;;;4.35;2.67;;;30.70;96.70;;;;;;4902707;29;20063;-79
2022/06/22 10:13:25;;;;;;;5.20;2.17;;;30.70;96.70;;;;;;4931460;29;20616;-78
2022/06/22 10:16:10;;;;;;;3.53;2.20;;;30.80;96.70;;;;;;4905755;29;20266;-79
2022/06/22 10:19:07;;;;;;;3.08;2.05;;;30.80;96.70;;;;;;4922500;29;20159;-78
2022/06/22 10:21:51;;;;;;;3.42;2.08;;;30.90;96.70;;;;;;4922829;29;20468;-78
2022/06/22 10:24:38;;;;;;;5.63;2.25;;;30.80;96.70;;;;;;4929396;28;20051;-78
2022/06/22 10:27:30;;;;;;;5.68;2.40;;;30.90;96.70;;;;;;4927759;29;20146;-77
2022/06/22 10:30:19;;;;;;;5.00;2.80;;;31.00;96.70;;;;;;4921331;29;20071;-77
2022/06/22 10:33:17;;;;;;;7.78;2.10;;;31.00;96.70;;;;;;4929401;29;20134;-77
2022/06/22 10:36:06;;;;;;;5.35;2.58;;;31.10;96.70;;;;;;4947898;28;20054;-77
2022/06/22 10:39:05;;;;;;;8.20;2.88;;;31.20;96.70;;;;;;4969500;28;20098;-77
2022/06/22 10:45:09;;;;;;;6.15;2.70;;;31.50;96.70;;;;;;4975260;28;20050;-81
2022/06/22 10:48:20;;;;;;;3.17;2.60;;;31.60;96.70;;;;;;4980778;28;20062;-80
2022/06/22 10:51:00;;;;;;;4.22;2.70;;;31.70;96.70;;;;;;4933790;28;20050;-83
2022/06/22 10:54:11;;;;;;;7.13;3.00;;;31.90;96.70;;;;;;4952175;28;20055;-84
2022/06/22 10:56:51;;;;;;;5.80;2.80;;;32.00;96.70;;;;;;4932363;29;20317;-83
2022/06/22 11:00:02;;;;;;;6.88;3.25;;;32.20;96.70;;;;;;4951927;28;20067;-83
2022/06/22 11:03:17;;;;;;;4.05;2.80;;;32.40;95.60;;;;;;4934451;28;20054;-82
2022/06/22 11:06:42;;;;;;;4.70;3.00;;;32.60;96.20;;;;;;4935130;28;20619;-83
2022/06/22 11:09:31;;;;;;;5.82;2.90;;;32.80;95.90;;;;;;4946352;28;20048;-85
2022/06/22 11:12:30;;;;;;;3.45;3.08;;;32.60;95.90;;;;;;4950236;28;20043;-83
2022/06/22 11:15:45;;;;;;;5.40;2.78;;;32.40;96.70;;;;;;4938606;28;20090;-81
2022/06/22 11:18:52;;;;;;;5.07;3.10;;;32.40;96.30;;;;;;4943313;28;20079;-82
2022/06/22 11:21:41;;;;;;;7.05;2.72;;;32.50;96.50;;;;;;4930278;29;20048;-82
2022/06/22 11:24:48;;;;;;;4.15;3.05;;;32.60;95.80;;;;;;4949882;28;20066;-81
2022/06/22 11:33:58;;;;;;;4.77;3.07;;;32.80;96.00;;;;;;4976917;28;20039;-80
2022/06/22 11:36:38;;;;;;;3.13;2.83;;;32.80;95.50;;;;;;4929716;29;20311;-81
2022/06/22 11:39:45;;;;;;;5.05;3.03;;;32.90;96.00;;;;;;4973386;28;20055;-80
2022/06/22 11:42:22;;;;;;;6.18;3.38;;;33.10;96.20;;;;;;4972154;28;20149;-80
2022/06/22 11:48:37;;;;;;;3.38;3.03;;;33.00;95.80;;;;;;4971657;28;20047;-80
2022/06/22 11:51:24;;;;;;;5.90;3.53;;;33.20;94.90;;;;;;4952771;28;20054;-81
2022/06/22 11:54:25;;;;;;;7.60;3.10;;;33.10;94.70;;;;;;4965080;28;20416;-80
2022/06/22 11:57:08;;;;;;;4.80;3.15;;;33.10;94.90;;;;;;4951529;28;20062;-81
2022/06/22 12:00:01;;;;;;;3.33;3.03;;;33.30;94.90;;;;;;4949112;28;20094;-81
2022/06/22 12:03:15;;;;;;;4.72;3.35;;;33.40;94.90;;;;;;4967924;28;20050;-80
2022/06/22 12:06:02;;;;;;;5.38;3.20;;;33.60;94.70;;;;;;4973094;28;20050;-81
2022/06/22 12:09:10;;;;;;;5.15;3.10;;;33.60;94.30;;;;;;4973954;28;20053;-81
2022/06/22 12:11:57;;;;;;;4.40;3.15;;;33.70;94.60;;;;;;4941846;28;20066;-81
2022/06/22 12:17:33;;;;;;;4.82;3.30;;;33.80;94.20;;;;;;4964680;28;20055;-80
2022/06/22 12:20:14;;;;;;;5.50;3.78;;;33.90;93.80;;;;;;4960049;28;20146;-80
2022/06/22 12:22:52;;;;;;;7.13;3.20;;;34.20;93.30;;;;;;4955635;28;20424;-81
2022/06/22 12:25:38;;;;;;;6.43;3.22;;;34.50;93.60;;;;;;4964184;28;20047;-81
2022/06/22 12:28:35;;;;;;;5.50;3.17;;;34.50;92.60;;;;;;4951273;28;20116;-80
2022/06/22 12:31:11;;;;;;;6.03;3.58;;;34.40;92.70;;;;;;4951896;28;20051;-81
2022/06/22 12:33:50;;;;;;;9.27;3.60;;;34.10;92.50;;;;;;4952011;28;20051;-81
2022/06/22 12:36:25;;;;;;;4.95;3.13;;;34.00;93.30;;;;;;4954814;28;20142;-80
2022/06/22 12:39:04;;;;;;;4.50;3.15;;;34.10;94.10;;;;;;4967890;28;20174;-81
2022/06/22 12:41:50;;;;;;;4.35;3.30;;;34.20;93.50;;;;;;4974557;28;20057;-81
2022/06/22 12:44:56;;;;;;;8.52;3.95;;;34.20;94.00;;;;;;4969992;28;20054;-81
2022/06/22 12:48:09;;;;;;;5.85;3.72;;;33.90;94.20;;;;;;4971936;28;20114;-81
2022/06/22 12:51:07;;;;;;;6.82;4.32;;;33.60;94.80;;;;;;4951081;28;20073;-81
2022/06/22 12:53:41;;;;;;;12.02;4.10;;;33.70;94.80;;;;;;4957224;28;20129;-80
2022/06/22 12:56:16;;;;;;;7.28;4.10;;;33.70;95.00;;;;;;4961438;28;20060;-78
2022/06/22 12:58:48;;;;;;;6.88;4.60;;;33.80;96.70;;;;;;4970301;28;20050;-80
2022/06/22 13:01:18;;;;;;;8.45;4.50;;;33.70;96.70;;;;;;4964396;28;20051;-79
2022/06/22 13:03:53;;;;;;;6.20;4.97;;;33.60;96.70;;;;;;4966347;28;20061;-79
2022/06/22 13:06:24;;;;;;;9.10;4.97;;;33.40;96.70;;;;;;4954576;28;20666;-80
2022/06/22 13:08:53;;;;;;;7.53;5.03;;;33.30;96.70;;;;;;4971222;28;20051;-80
2022/06/22 13:11:28;;;;;;;7.07;5.20;;;33.30;96.70;;;;;;4965339;28;20058;-79
2022/06/22 13:14:07;;;;;;;9.00;5.03;;;33.30;96.70;;;;;;4966408;28;20047;-78
2022/06/22 13:16:40;;;;;;;7.47;4.80;;;33.00;96.70;;;;;;4965114;28;20050;-78
2022/06/22 13:19:17;;;;;;;8.27;5.00;;;32.80;96.70;;;;;;4970546;28;20049;-82
2022/06/22 13:21:54;;;;;;;5.78;5.18;;;32.60;96.70;;;;;;4966875;28;20076;-81
2022/06/22 13:24:33;;;;;;;8.18;5.15;;;32.30;96.70;;;;;;4966912;28;20105;-83
2022/06/22 13:27:20;;;;;;;11.00;6.00;;;32.20;96.70;;;;;;4966025;28;20601;-82
2022/06/22 13:29:50;;;;;;;;;;;31.90;96.70;;;;;;4965517;28;20061;-81
2022/06/22 13:32:19;;;;;;;10.95;5.95;;;31.80;96.70;;;;;;4961604;28;20376;-82
2022/06/22 13:34:52;;;;;;;8.20;5.88;;;31.80;96.70;;;;;;4957083;28;20078;-81
2022/06/22 13:37:29;;;;;;;8.13;6.18;;;31.70;96.70;;;;;;4963911;28;20659;-81
2022/06/22 13:40:10;;;;;;;8.57;5.85;;;31.60;96.70;;;;;;4963917;28;20082;-82
2022/06/22 13:43:06;;;;;;;8.85;6.20;;;31.50;96.70;;;;;;4953508;28;20587;-82
2022/06/22 13:45:48;;;;;;;7.03;6.20;;;31.40;96.70;;;;;;4965226;28;20050;-81
2022/06/22 13:48:20;;;;;;;10.23;6.63;;;31.30;96.70;;;;;;4953689;28;20495;-81
2022/06/22 13:54:51;;;;;;;12.38;7.07;;;31.20;96.70;;;;;;4973240;28;20045;-81
2022/06/22 13:57:30;;;;;;;8.27;6.75;;;31.00;96.70;;;;;;4962975;28;20545;-82
2022/06/22 14:00:05;;;;;;;12.95;7.90;;;31.00;96.70;;;;;;4947651;28;20042;-81
2022/06/22 14:02:45;;;;;;;;;;;31.00;96.70;;;;;;4945731;28;20044;-81
2022/06/22 14:05:21;;;;;;;9.63;7.28;;;31.00;96.70;;;;;;4964010;28;20528;-82
2022/06/22 14:07:56;;;;;;;9.52;6.93;;;31.20;96.70;;;;;;4946520;28;20074;-81
2022/06/22 14:10:32;;;;;;;9.05;7.35;;;31.30;96.70;;;;;;4963466;28;20043;-82
2022/06/22 14:13:25;;;;;;;8.35;6.85;;;31.30;96.70;;;;;;4964027;28;20070;-81
2022/06/22 14:16:06;;;;;;;7.60;6.82;;;31.30;96.70;;;;;;4950322;28;20054;-81
2022/06/22 14:18:42;;;;;;;7.35;6.68;;;31.30;96.70;;;;;;4968359;28;20129;-80
2022/06/22 14:21:22;;;;;;;9.05;6.97;;;31.20;96.70;;;;;;4966087;28;20070;-81